Overseas Luzon — V7NE5 — position and weather

sailwx.info

Track history (hours):
 
Tides and Currents Weather Stations Pressure Air Temp Water Temp Dewpoint Dewpoint Depression Visibility Wind Speed Wind Dir Waves Ship Positions

Overseas Luzon

Last reported at 2015-May-11 19:12 UTC. Time now 2015-May-23 08:50 UTC.
Position N 35°34' W 124°10'.
Warning: this ship's position is 11 days out of date.

Length 228 m; draft 8.2 m.

Type: Tanker. MMSI: 538002946.

Date/timePositionNaut miles runAvg speedWind from/ knotsBaromVisibWave heightAir tempDewpointWater temp
2015-May-11 19:12N 35°34' W 124°10'1015.1
2015-May-11 18:33N 35°43' W 124°05'1514.9
2015-May-11 17:33N 35°56' W 123°57'1514.3
2015-May-11 16:30N 36°10' W 123°50'3314.2
2015-May-11 14:09N 36°41' W 123°33'914.3
2015-May-11 13:33N 36°48' W 123°28'1514.4
2015-May-11 12:32N 37°02' W 123°21'1814.5
2015-May-11 11:16N 37°19' W 123°13'811.8
2015-May-11 10:33N 37°27' W 123°09'1110.7
2015-May-11 09:33N 37°36' W 123°01'1111.3
2015-May-11 08:33N 37°42' W 122°49'1010.3
2015-May-11 07:33N 37°46' W 122°37'1212.3
2015-May-11 06:33N 37°48' W 122°22'3 2.8
2015-May-11 05:33N 37°45' W 122°21'0 0.0
2015-May-11 04:33N 37°45' W 122°21'0 0.0
2015-May-11 03:33N 37°45' W 122°21'0 0.2
2015-May-11 02:33N 37°45' W 122°21'0 0.0
2015-May-11 01:33N 37°45' W 122°21'0 0.1
2015-May-11 00:33N 37°45' W 122°21'0 0.0
2015-May-10 23:33N 37°45' W 122°21'0 0.1
2015-May-10 22:34N 37°45' W 122°21'1010.4
2015-May-10 21:33N 37°55' W 122°25'1 0.9
2015-May-10 20:33N 37°55' W 122°25'0 0.0
2015-May-10 18:25N 37°55' W 122°25'0 0.0
2015-May-09 01:19N 37°55' W 122°25'0 0.0
2015-May-09 00:19N 37°55' W 122°25'0 0.0
2015-May-08 23:31N 37°55' W 122°25'0 0.0
2015-May-08 20:32N 37°55' W 122°25'0 0.0
2015-May-08 19:33N 37°55' W 122°25'4 3.6
2015-May-08 18:33N 37°52' W 122°25'9 8.7
2015-May-08 17:33N 37°47' W 122°34'9 8.2
2015-May-08 16:25N 37°42' W 122°44'5 5.7
2015-May-08 15:33N 37°39' W 122°49'8 8.3
2015-May-08 14:33N 37°35' W 122°58'8 7.3
2015-May-08 13:25N 37°29' W 123°05'6 6.7
2015-May-08 12:28N 37°23' W 123°07'  
Track history (hours):
 
Tides and Currents Weather Stations Pressure Air Temp Water Temp Dewpoint Dewpoint Depression Visibility Wind Speed Wind Dir Waves Ship Positions

Overseas Luzon

Last reported at 2015-May-11 19:12 UTC. Time now 2015-May-23 08:50 UTC.
Position N 35°34' W 124°10'.
Warning: this ship's position is 11 days out of date.

Length 228 m; draft 8.2 m.

Type: Tanker. MMSI: 538002946.

Date/timePositionNaut miles runAvg speedWind from/ knotsBaromVisibWave heightAir tempDewpointWater temp
2015-May-11 19:12N 35°34' W 124°10'1015.1
2015-May-11 18:33N 35°43' W 124°05'1514.9
2015-May-11 17:33N 35°56' W 123°57'1514.3
2015-May-11 16:30N 36°10' W 123°50'3314.2
2015-May-11 14:09N 36°41' W 123°33'914.3
2015-May-11 13:33N 36°48' W 123°28'1514.4
2015-May-11 12:32N 37°02' W 123°21'1814.5
2015-May-11 11:16N 37°19' W 123°13'811.8
2015-May-11 10:33N 37°27' W 123°09'1110.7
2015-May-11 09:33N 37°36' W 123°01'1111.3
2015-May-11 08:33N 37°42' W 122°49'1010.3
2015-May-11 07:33N 37°46' W 122°37'1212.3
2015-May-11 06:33N 37°48' W 122°22'3 2.8
2015-May-11 05:33N 37°45' W 122°21'0 0.0
2015-May-11 04:33N 37°45' W 122°21'0 0.0
2015-May-11 03:33N 37°45' W 122°21'0 0.2
2015-May-11 02:33N 37°45' W 122°21'0 0.0
2015-May-11 01:33N 37°45' W 122°21'0 0.1
2015-May-11 00:33N 37°45' W 122°21'0 0.0
2015-May-10 23:33N 37°45' W 122°21'0 0.1
2015-May-10 22:34N 37°45' W 122°21'1010.4
2015-May-10 21:33N 37°55' W 122°25'1 0.9
2015-May-10 20:33N 37°55' W 122°25'0 0.0
2015-May-10 18:25N 37°55' W 122°25'0 0.0
2015-May-09 01:19N 37°55' W 122°25'0 0.0
2015-May-09 00:19N 37°55' W 122°25'0 0.0
2015-May-08 23:31N 37°55' W 122°25'0 0.0
2015-May-08 20:32N 37°55' W 122°25'0 0.0
2015-May-08 19:33N 37°55' W 122°25'4 3.6
2015-May-08 18:33N 37°52' W 122°25'9 8.7
2015-May-08 17:33N 37°47' W 122°34'9 8.2
2015-May-08 16:25N 37°42' W 122°44'5 5.7
2015-May-08 15:33N 37°39' W 122°49'8 8.3
2015-May-08 14:33N 37°35' W 122°58'8 7.3
2015-May-08 13:25N 37°29' W 123°05'6 6.7
2015-May-08 12:28N 37°23' W 123°07'  

Dump ship's entire track history